createdAt,value
2019-05-11T11:29:58.910Z,13.00
2019-05-11T11:32:28.530Z,13.00
2019-05-11T11:34:58.144Z,13.00
2019-05-11T11:37:28.123Z,13.00
2019-05-11T11:39:58.207Z,13.10
2019-05-11T11:42:28.451Z,13.30
2019-05-11T11:44:58.751Z,13.20
2019-05-11T11:47:28.564Z,13.20
2019-05-11T11:49:58.471Z,13.20
2019-05-11T11:52:29.229Z,13.20
2019-05-11T11:54:58.901Z,13.30
2019-05-11T11:57:28.596Z,13.20
2019-05-11T11:59:59.471Z,13.30
2019-05-11T12:02:29.093Z,13.00
2019-05-11T12:04:58.742Z,13.10
2019-05-11T12:07:28.646Z,13.20
2019-05-11T12:09:58.909Z,13.20
2019-05-11T12:12:28.593Z,13.40
2019-05-11T12:14:58.552Z,13.50
2019-05-11T12:17:28.680Z,13.60
2019-05-11T12:19:58.724Z,13.60
2019-05-11T12:22:28.571Z,13.70
2019-05-11T12:24:58.902Z,13.90
2019-05-11T12:27:28.836Z,13.90
2019-05-11T12:29:58.632Z,13.80
2019-05-11T12:32:42.706Z,13.70
2019-05-11T12:35:12.669Z,13.60
2019-05-11T12:37:42.371Z,13.70
2019-05-11T12:40:14.912Z,13.80
2019-05-11T12:42:44.536Z,13.80
2019-05-11T12:45:14.504Z,13.80
2019-05-11T12:47:44.124Z,13.70
2019-05-11T12:50:14.112Z,13.80
2019-05-11T12:52:43.792Z,13.90
2019-05-11T12:55:13.745Z,13.90
2019-05-11T12:57:44.441Z,13.90
2019-05-11T13:00:14.996Z,13.90
2019-05-11T13:02:48.197Z,14.00
2019-05-11T13:05:18.128Z,14.10
2019-05-11T13:07:48.460Z,14.20
2019-05-11T13:10:18.957Z,14.20
2019-05-11T13:12:49.371Z,14.30
2019-05-11T13:15:20.936Z,14.40
2019-05-11T13:17:50.554Z,14.40
2019-05-11T13:20:20.175Z,14.20
2019-05-11T13:22:49.885Z,14.20
2019-05-11T13:25:19.508Z,14.20
2019-05-11T13:27:49.402Z,14.20
2019-05-11T13:30:19.393Z,14.10
2019-05-11T13:32:49.296Z,14.00
2019-05-11T13:35:19.120Z,13.90
2019-05-11T13:37:48.860Z,13.90
2019-05-11T13:40:18.789Z,14.00
2019-05-11T13:42:49.098Z,14.10
2019-05-11T13:45:19.277Z,14.20
2019-05-11T13:47:55.355Z,14.40
2019-05-11T13:50:20.292Z,14.40
2019-05-11T13:52:49.898Z,14.40
2019-05-11T13:55:19.527Z,14.30
2019-05-11T13:57:49.129Z,14.30
2019-05-11T14:00:19.446Z,14.40
2019-05-11T14:02:49.102Z,14.40
2019-05-11T14:05:18.767Z,14.40
2019-05-11T14:07:48.549Z,14.50
2019-05-11T14:10:18.489Z,14.50
2019-05-11T14:12:48.304Z,14.60
2019-05-11T14:15:18.840Z,14.60
2019-05-11T14:18:04.421Z,14.80
2019-05-11T14:20:21.445Z,14.80
2019-05-11T14:22:51.074Z,14.80
2019-05-11T14:25:20.758Z,14.70
